Weather forecast for Bozoy (Бозой)

Russia, 588 m
N53.011, E104.880


Sounding

Red line — air temperature ˚C.
Blue line — thermal bubble temperature ˚C.
Green line — dew point temperature ˚C.
Wind speed is in meters per second.

Table forecast

GFS 0.25˚ model

temp. wind gust humid. clouds prec. press. hpbl
Mon10 00:00 16 314.0 nw 4 12 68 100 0.1 1004 348
03:00 15 350.0 n 5 13 83 100 0.6 1005 450
06:00 14 287.0 wnw 3 8 90 100 1.1 1004 184
09:00 16 316.0 nw 2 5 79 98 1.1 1005 257
12:00 22 348.0 nnw 3 5 42 87 0.0 1005 1938
15:00 24 356.0 n 4 4 36 90 0.0 1004 2380
18:00 24 351.0 n 4 5 40 100 0.0 1004 2390
21:00 19 315.0 nw 2 2 58 100 0.0 1005 37
 
Tue11 00:00 14 343.0 nnw 2 2 75 79 0.0 1006 23
03:00 15 351.0 n 0 1 65 90 0.0 1006 24
06:00 13 192.0 ssw 1 2 81 96 0.0 1006 32
09:00 15 138.0 se 1 1 79 87 0.0 1007 141
12:00 19 202.0 ssw 2 2 63 97 0.0 1006 409
15:00 25 182.0 s 1 2 37 79 0.0 1006 2146
18:00 25 159.0 sse 2 2 36 0 0.0 1005 2262
21:00 19 114.0 ese 3 4 60 21 0.0 1006 55
 
Wed12 00:00 14 57.0 ene 1 2 68 100 0.0 1007 23
03:00 14 55.0 ne 2 3 67 93 0.0 1007 30
06:00 12 53.0 ne 3 3 73 20 0.0 1007 37
09:00 15 88.0 e 3 5 75 43 0.3 1007 222
12:00 21 114.0 ese 4 4 59 52 0.3 1005 656
15:00 25 166.0 sse 2 4 46 0 0.2 1004 1646
18:00 26 145.0 se 3 3 42 52 0.6 1003 2040
21:00 20 162.0 sse 3 4 65 28 0.7 1004 55
 
Thu13 00:00 15 62.0 ene 1 1 84 0 0.0 1004 23
03:00 14 56.0 ne 1 2 87 0 0.0 1004 23
06:00 13 53.0 ne 2 2 88 0 0.0 1003 23
09:00 17 75.0 ene 1 1 71 3 0.0 1003 167
12:00 23 179.0 s 2 1 52 0 0.0 1002 695
15:00 26 291.0 wnw 2 3 42 50 0.2 1000 1897
18:00 26 325.0 nw 2 3 37 75 0.1 999 2120
21:00 21 6.0 n 1 2 57 56 0.1 1000 25
 
Fri14 00:00 16 35.0 ne 1 1 79 16 0.0 1000 23
03:00 14 21.0 nne 1 1 85 8 0.0 1000 23
06:00 13 28.0 nne 1 1 88 0 0.0 1001 23
09:00 17 99.0 e 0 1 72 14 0.0 1001 150
12:00 23 220.0 sw 1 2 52 39 0.0 1000 882
15:00 25 219.0 sw 2 2 43 70 0.0 999 1835
18:00 24 275.0 w 1 2 52 100 0.0 1000 538
21:00 21 11.0 n 3 6 56 100 0.0 1002 157
 

0.019 s